Time;durP1;ratioP1;P1;durP2;ratioP2;P2;SDS_P1;SDS_P2;PMS_P1;PMS_P2;Temp;Humidity;BMP_temperature;BMP_pressure;BME280_temperature;BME280_humidity;BME280_pressure;Samples;Min_cycle;Max_cycle;Signal;HPM_P1;HPM_P2
2023/03/14 00:01:12;;;;;;;1.23;1.00;;;23.10;55.10;;;;;;5053560;28;20459;-80
2023/03/14 00:03:41;;;;;;;2.60;1.30;;;23.10;55.10;;;;;;5050683;28;20455;-80
2023/03/14 00:06:11;;;;;;;1.40;1.20;;;23.10;55.10;;;;;;5053330;28;20993;-80
2023/03/14 00:08:39;;;;;;;1.63;1.30;;;23.10;55.10;;;;;;5050871;28;20498;-80
2023/03/14 00:11:09;;;;;;;2.70;1.47;;;23.10;55.30;;;;;;5051930;28;20476;-80
2023/03/14 00:13:37;;;;;;;1.90;1.70;;;23.10;55.10;;;;;;5052203;28;20457;-80
2023/03/14 00:16:08;;;;;;;1.53;1.10;;;23.10;55.00;;;;;;5054689;28;20817;-81
2023/03/14 00:18:36;;;;;;;1.50;1.10;;;23.20;55.10;;;;;;5065858;28;20464;-80
2023/03/14 00:21:07;;;;;;;1.20;1.07;;;23.10;55.10;;;;;;5071007;28;20465;-81
2023/03/14 00:23:38;;;;;;;1.37;1.27;;;23.10;55.20;;;;;;5066188;28;20493;-80
2023/03/14 00:26:08;;;;;;;2.30;1.40;;;23.10;55.10;;;;;;5066968;28;20991;-81
2023/03/14 00:28:36;;;;;;;4.20;1.67;;;23.10;55.10;;;;;;5071997;28;20454;-81
2023/03/14 00:31:05;;;;;;;1.80;1.03;;;23.10;55.00;;;;;;5058661;28;20451;-81
2023/03/14 00:33:34;;;;;;;1.07;0.90;;;23.10;55.00;;;;;;5070086;28;20522;-81
2023/03/14 00:36:08;;;;;;;1.90;1.10;;;23.10;55.00;;;;;;5079401;28;20505;-81
2023/03/14 00:38:38;;;;;;;2.07;1.40;;;23.10;55.00;;;;;;5091589;28;20441;-81
2023/03/14 00:41:08;;;;;;;1.63;1.20;;;23.10;54.90;;;;;;5078123;28;20453;-81
2023/03/14 00:43:36;;;;;;;1.43;1.10;;;23.10;54.90;;;;;;5057516;28;20547;-81
2023/03/14 00:46:05;;;;;;;1.33;1.03;;;23.10;54.90;;;;;;5067859;28;20493;-81
2023/03/14 00:48:33;;;;;;;1.57;1.20;;;23.10;54.90;;;;;;5077173;28;20503;-81
2023/03/14 00:51:02;;;;;;;2.67;1.00;;;23.10;54.90;;;;;;5064358;28;20981;-80
2023/03/14 00:53:32;;;;;;;1.13;1.03;;;23.00;54.90;;;;;;5070979;28;20442;-80
2023/03/14 00:56:03;;;;;;;0.90;0.90;;;23.00;54.90;;;;;;5069982;28;20466;-80
2023/03/14 00:58:31;;;;;;;2.10;1.10;;;23.00;54.90;;;;;;5055906;28;20458;-80
2023/03/14 01:00:59;;;;;;;1.67;1.20;;;23.00;55.00;;;;;;5081427;28;20920;-80
2023/03/14 01:03:28;;;;;;;1.73;1.20;;;23.00;55.00;;;;;;5032489;28;20458;-81
2023/03/14 01:06:08;;;;;;;2.07;1.40;;;23.00;55.00;;;;;;5048473;28;20535;-81
2023/03/14 01:08:37;;;;;;;1.47;1.00;;;23.00;55.00;;;;;;5090383;28;20791;-81
2023/03/14 01:11:08;;;;;;;0.93;0.90;;;22.90;55.00;;;;;;5054215;28;20539;-81
2023/03/14 01:13:36;;;;;;;1.63;1.07;;;22.90;55.00;;;;;;5070052;28;20449;-81
2023/03/14 01:16:06;;;;;;;4.10;1.10;;;22.90;55.00;;;;;;5066562;28;20461;-81
2023/03/14 01:18:38;;;;;;;1.20;0.93;;;22.90;55.10;;;;;;5043986;28;20483;-81
2023/03/14 01:21:11;;;;;;;1.33;1.17;;;22.90;55.10;;;;;;5056873;28;20465;-81
2023/03/14 01:23:41;;;;;;;1.70;0.90;;;22.90;55.10;;;;;;5073211;28;20477;-81
2023/03/14 01:26:11;;;;;;;1.23;0.80;;;22.90;55.10;;;;;;5038059;28;20566;-81
2023/03/14 01:28:40;;;;;;;2.03;0.67;;;22.90;55.10;;;;;;5032708;28;20450;-81
2023/03/14 01:31:10;;;;;;;1.90;0.90;;;22.80;55.10;;;;;;5060753;28;20464;-80
2023/03/14 01:33:40;;;;;;;0.60;0.60;;;22.90;55.10;;;;;;5082436;28;21326;-80
2023/03/14 01:36:10;;;;;;;1.10;1.10;;;22.90;55.10;;;;;;5049408;28;20468;-81
2023/03/14 01:38:41;;;;;;;1.20;1.10;;;22.90;55.10;;;;;;5052279;28;20933;-81
2023/03/14 01:41:15;;;;;;;1.90;0.80;;;22.90;55.10;;;;;;5075474;28;20462;-81
2023/03/14 01:43:45;;;;;;;1.37;0.90;;;22.90;55.00;;;;;;5052368;28;20457;-81
2023/03/14 01:46:23;;;;;;;1.10;0.70;;;22.90;55.00;;;;;;5051571;28;20543;-81
2023/03/14 01:49:04;;;;;;;1.00;0.90;;;22.90;55.00;;;;;;5065980;28;20958;-80
2023/03/14 01:51:41;;;;;;;1.00;0.90;;;22.90;55.00;;;;;;5050986;28;20432;-81
2023/03/14 01:54:17;;;;;;;0.67;0.67;;;22.90;55.00;;;;;;5041927;28;20494;-81
2023/03/14 01:56:50;;;;;;;1.50;0.80;;;22.90;54.90;;;;;;5052698;28;20498;-81
2023/03/14 01:59:19;;;;;;;0.77;0.77;;;22.90;55.00;;;;;;5051785;28;20511;-81
2023/03/14 02:01:50;;;;;;;0.83;0.70;;;22.90;54.90;;;;;;5050652;28;20461;-81
2023/03/14 02:04:20;;;;;;;0.83;0.73;;;22.90;55.00;;;;;;5036686;28;20466;-81
2023/03/14 02:06:53;;;;;;;0.60;0.60;;;22.90;54.90;;;;;;5053228;28;20972;-81
2023/03/14 02:09:26;;;;;;;3.53;1.00;;;22.90;54.90;;;;;;5064728;28;20456;-81
2023/03/14 02:11:55;;;;;;;0.73;0.70;;;22.80;54.90;;;;;;5058859;28;20536;-81
2023/03/14 02:14:48;;;;;;;1.00;1.00;;;22.80;54.90;;;;;;5057776;28;20866;-81
2023/03/14 02:17:23;;;;;;;0.80;0.60;;;22.80;54.90;;;;;;5049803;28;21028;-81
2023/03/14 02:20:24;;;;;;;1.27;0.70;;;22.80;54.90;;;;;;5059066;28;20467;-81
2023/03/14 02:22:56;;;;;;;0.70;0.60;;;22.80;54.90;;;;;;5068463;28;21359;-81
2023/03/14 02:25:39;;;;;;;0.83;0.83;;;22.80;54.90;;;;;;5064923;28;20469;-81
2023/03/14 02:28:09;;;;;;;0.97;0.87;;;22.80;54.90;;;;;;5069757;28;20443;-81
2023/03/14 02:30:39;;;;;;;1.70;0.60;;;22.80;54.90;;;;;;5051945;28;20490;-80
2023/03/14 02:33:09;;;;;;;0.83;0.70;;;22.80;54.90;;;;;;5067940;28;20463;-81
2023/03/14 02:35:40;;;;;;;1.23;0.50;;;22.80;54.90;;;;;;5066001;28;20508;-81
2023/03/14 02:38:17;;;;;;;0.93;0.83;;;22.80;54.90;;;;;;5065014;28;20846;-81
2023/03/14 02:40:46;;;;;;;0.60;0.60;;;22.80;54.90;;;;;;5055132;28;20456;-80
2023/03/14 02:43:16;;;;;;;1.20;0.87;;;22.80;54.90;;;;;;5055806;28;20490;-81
2023/03/14 02:45:51;;;;;;;0.63;0.63;;;22.80;54.90;;;;;;5056163;28;20457;-81
2023/03/14 02:48:25;;;;;;;0.80;0.80;;;22.80;55.00;;;;;;5055828;28;21027;-81
2023/03/14 02:50:56;;;;;;;0.77;0.77;;;22.70;55.00;;;;;;5051425;28;20457;-81
2023/03/14 02:53:27;;;;;;;0.87;0.87;;;22.70;55.00;;;;;;5051067;28;20467;-81
2023/03/14 02:55:58;;;;;;;1.73;0.80;;;22.70;55.00;;;;;;5051432;28;20493;-80
2023/03/14 02:58:29;;;;;;;0.50;0.50;;;22.70;55.00;;;;;;5074567;28;20880;-81
2023/03/14 03:01:06;;;;;;;0.77;0.70;;;22.70;55.00;;;;;;5056223;28;20487;-81
2023/03/14 03:03:34;;;;;;;1.20;0.60;;;22.70;55.00;;;;;;5072066;28;20521;-80
2023/03/14 03:06:03;;;;;;;1.03;0.77;;;22.70;55.00;;;;;;5076353;28;20502;-80
2023/03/14 03:08:32;;;;;;;1.07;0.97;;;22.70;55.00;;;;;;5056518;28;20461;-80
2023/03/14 03:11:01;;;;;;;0.50;0.50;;;22.70;55.00;;;;;;5065713;28;20469;-81
2023/03/14 03:13:33;;;;;;;1.27;0.70;;;22.70;55.00;;;;;;5057017;28;20516;-81
2023/03/14 03:16:03;;;;;;;0.80;0.50;;;22.70;54.90;;;;;;5060389;28;20457;-81
2023/03/14 03:18:31;;;;;;;0.60;0.60;;;22.70;54.90;;;;;;5093617;28;20552;-81
2023/03/14 03:21:02;;;;;;;1.27;0.53;;;22.80;54.90;;;;;;5045071;28;20450;-80
2023/03/14 03:23:30;;;;;;;0.60;0.60;;;22.70;54.90;;;;;;5070971;28;20497;-80
2023/03/14 03:25:58;;;;;;;1.63;0.80;;;22.70;54.90;;;;;;5055475;28;20481;-80
2023/03/14 03:28:27;;;;;;;0.70;0.50;;;22.70;54.80;;;;;;5055388;28;20952;-81
2023/03/14 03:30:57;;;;;;;0.60;0.60;;;22.70;54.80;;;;;;5064375;28;20882;-81
2023/03/14 03:33:25;;;;;;;0.50;0.47;;;22.70;54.80;;;;;;5071138;28;20485;-81
2023/03/14 03:35:54;;;;;;;1.20;0.70;;;22.70;54.80;;;;;;5058652;28;20450;-80
2023/03/14 03:38:29;;;;;;;0.83;0.50;;;22.70;54.80;;;;;;5055388;28;20477;-80
2023/03/14 03:40:59;;;;;;;0.80;0.60;;;22.70;54.80;;;;;;5061826;28;20513;-80
2023/03/14 03:43:28;;;;;;;1.00;0.53;;;22.70;54.90;;;;;;5056895;28;20511;-81
2023/03/14 03:45:59;;;;;;;0.53;0.53;;;22.70;54.90;;;;;;5055950;28;20956;-81
2023/03/14 03:48:27;;;;;;;0.90;0.60;;;22.70;54.90;;;;;;5049246;28;20467;-80
2023/03/14 03:50:55;;;;;;;0.80;0.57;;;22.60;54.90;;;;;;5038920;28;20459;-80
2023/03/14 03:53:24;;;;;;;0.50;0.43;;;22.60;54.90;;;;;;5040022;28;20463;-81
2023/03/14 03:56:03;;;;;;;0.40;0.40;;;22.60;54.90;;;;;;5060455;28;20484;-81
2023/03/14 03:58:31;;;;;;;0.80;0.60;;;22.60;54.90;;;;;;5071944;28;20502;-81
2023/03/14 04:01:01;;;;;;;0.57;0.40;;;22.60;55.00;;;;;;5061493;28;20546;-81
2023/03/14 04:03:29;;;;;;;0.60;0.60;;;22.60;55.10;;;;;;5049704;28;20489;-80
2023/03/14 04:06:01;;;;;;;0.97;0.60;;;22.60;55.00;;;;;;5057879;28;20472;-81
2023/03/14 04:08:30;;;;;;;0.50;0.50;;;22.60;55.00;;;;;;5080246;28;20440;-81
2023/03/14 04:10:59;;;;;;;0.43;0.43;;;22.60;55.00;;;;;;5069885;28;20492;-81
2023/03/14 04:14:06;;;;;;;0.80;0.60;;;22.50;55.00;;;;;;4990535;28;20885;-81
2023/03/14 04:16:36;;;;;;;1.00;0.80;;;22.50;55.10;;;;;;4991485;28;20558;-81
2023/03/14 04:19:11;;;;;;;0.40;0.30;;;22.50;55.10;;;;;;5026734;28;21022;-81
2023/03/14 04:21:40;;;;;;;0.63;0.50;;;22.60;55.10;;;;;;5071074;28;20465;-81
2023/03/14 04:24:11;;;;;;;0.67;0.50;;;22.60;55.00;;;;;;5036701;28;20573;-81
2023/03/14 04:26:40;;;;;;;0.50;0.50;;;22.60;55.00;;;;;;5066458;28;20473;-81
2023/03/14 04:29:10;;;;;;;0.60;0.50;;;22.60;54.80;;;;;;5034692;28;20880;-81
2023/03/14 04:31:42;;;;;;;0.60;0.50;;;22.60;54.80;;;;;;5048571;28;20454;-81
2023/03/14 04:34:10;;;;;;;0.40;0.40;;;22.60;54.80;;;;;;5063747;28;20459;-81
2023/03/14 04:36:48;;;;;;;1.60;0.67;;;22.60;54.70;;;;;;5036389;28;20459;-81
2023/03/14 04:39:20;;;;;;;0.40;0.30;;;22.60;54.80;;;;;;5054045;28;20488;-81
2023/03/14 04:41:57;;;;;;;0.50;0.50;;;22.60;54.70;;;;;;5054337;28;20454;-81
2023/03/14 04:44:25;;;;;;;0.60;0.57;;;22.60;54.70;;;;;;5073996;28;20504;-81
2023/03/14 04:46:56;;;;;;;0.53;0.40;;;22.60;54.80;;;;;;5060498;28;21319;-81
2023/03/14 04:49:25;;;;;;;0.40;0.40;;;22.60;54.70;;;;;;5053204;28;21046;-81
2023/03/14 04:51:53;;;;;;;0.90;0.40;;;22.60;54.80;;;;;;5052062;28;20569;-81
2023/03/14 04:54:24;;;;;;;0.40;0.40;;;22.60;54.80;;;;;;5042905;28;20541;-81
2023/03/14 04:56:56;;;;;;;0.40;0.40;;;22.60;54.80;;;;;;5057643;28;20456;-81
2023/03/14 04:59:26;;;;;;;0.40;0.40;;;22.60;54.80;;;;;;5055503;28;20516;-81
2023/03/14 05:02:00;;;;;;;0.57;0.57;;;22.50;54.70;;;;;;5052879;28;20462;-81
2023/03/14 05:04:41;;;;;;;0.50;0.40;;;22.50;54.80;;;;;;5046523;28;20473;-81
2023/03/14 05:07:15;;;;;;;0.40;0.40;;;22.50;54.80;;;;;;5068612;28;20454;-81
2023/03/14 05:10:01;;;;;;;0.73;0.50;;;22.50;54.80;;;;;;5069778;28;20476;-81
2023/03/14 05:12:54;;;;;;;0.40;0.40;;;22.50;54.80;;;;;;5071185;28;21002;-80
2023/03/14 05:15:50;;;;;;;0.60;0.40;;;22.50;54.80;;;;;;5052972;28;20955;-80
2023/03/14 05:18:43;;;;;;;0.47;0.47;;;22.50;54.80;;;;;;5056195;28;20470;-80
2023/03/14 05:21:29;;;;;;;0.80;0.60;;;22.50;54.80;;;;;;5045207;28;20470;-80
2023/03/14 05:24:19;;;;;;;0.40;0.40;;;22.50;54.80;;;;;;5044352;28;20572;-80
2023/03/14 05:27:00;;;;;;;0.50;0.50;;;22.50;54.90;;;;;;5065613;28;20519;-80
2023/03/14 05:29:31;;;;;;;0.40;0.40;;;22.50;54.90;;;;;;5070295;28;20454;-80
2023/03/14 05:32:12;;;;;;;0.40;0.40;;;22.50;54.90;;;;;;5062293;28;20522;-80
2023/03/14 05:35:09;;;;;;;0.40;0.30;;;22.50;54.90;;;;;;5049883;28;20454;-80
2023/03/14 05:38:03;;;;;;;0.60;0.50;;;22.60;54.90;;;;;;5035626;28;20438;-81
2023/03/14 05:40:31;;;;;;;0.30;0.30;;;22.60;54.90;;;;;;5067385;28;20492;-80
2023/03/14 05:43:32;;;;;;;0.40;0.40;;;22.60;54.80;;;;;;5056893;28;20503;-81
2023/03/14 05:46:11;;;;;;;0.50;0.40;;;22.60;54.60;;;;;;5049838;28;20461;-80
2023/03/14 05:49:03;;;;;;;0.90;0.40;;;22.70;54.60;;;;;;5071297;28;20555;-80
2023/03/14 05:51:51;;;;;;;0.60;0.60;;;22.70;54.60;;;;;;5064158;28;20465;-80
2023/03/14 05:54:46;;;;;;;0.40;0.40;;;22.70;54.60;;;;;;5056469;28;20469;-80
2023/03/14 05:57:49;;;;;;;1.33;0.47;;;22.70;54.60;;;;;;5012114;28;20551;-80
2023/03/14 06:00:34;;;;;;;0.60;0.60;;;22.70;54.60;;;;;;5046038;28;20574;-80
2023/03/14 06:03:18;;;;;;;0.60;0.40;;;22.60;54.60;;;;;;5052515;28;20558;-80
2023/03/14 06:05:50;;;;;;;0.60;0.47;;;22.60;54.70;;;;;;5052091;28;20462;-80
2023/03/14 06:08:22;;;;;;;0.40;0.40;;;22.60;54.70;;;;;;5055953;28;20622;-80
2023/03/14 06:10:51;;;;;;;0.40;0.40;;;22.60;54.70;;;;;;5063584;28;20527;-81
2023/03/14 06:13:20;;;;;;;0.40;0.40;;;22.60;54.80;;;;;;5068659;28;20465;-82
2023/03/14 06:15:48;;;;;;;0.70;0.50;;;22.60;54.90;;;;;;5075522;28;20445;-82
2023/03/14 06:18:16;;;;;;;0.50;0.50;;;22.60;54.90;;;;;;5051937;28;20449;-82
2023/03/14 06:20:45;;;;;;;0.70;0.60;;;22.50;55.00;;;;;;5059074;28;20544;-83
2023/03/14 06:23:22;;;;;;;1.47;1.33;;;22.50;55.10;;;;;;5051766;28;20559;-80
2023/03/14 06:25:51;;;;;;;3.80;0.70;;;22.50;55.20;;;;;;5062197;28;20461;-81
2023/03/14 06:28:22;;;;;;;2.20;0.50;;;22.50;55.30;;;;;;5049143;28;20523;-80
2023/03/14 06:30:54;;;;;;;0.60;0.50;;;22.50;55.30;;;;;;5045569;28;20477;-80
2023/03/14 06:33:22;;;;;;;0.77;0.40;;;22.50;55.40;;;;;;5052905;28;21059;-80
2023/03/14 06:35:50;;;;;;;1.90;0.67;;;22.50;55.40;;;;;;5051188;28;20475;-80
2023/03/14 06:38:18;;;;;;;2.23;0.90;;;22.50;55.40;;;;;;5052305;28;20552;-80
2023/03/14 06:40:48;;;;;;;2.30;1.30;;;22.50;55.40;;;;;;5071334;28;20507;-80
2023/03/14 06:43:27;;;;;;;0.87;0.67;;;22.40;55.50;;;;;;5042062;28;20460;-80
2023/03/14 06:45:55;;;;;;;1.43;0.83;;;22.40;55.60;;;;;;5069211;28;20553;-81
2023/03/14 06:48:23;;;;;;;2.13;0.90;;;22.40;55.60;;;;;;5050489;28;20473;-79
2023/03/14 06:50:54;;;;;;;1.27;0.70;;;22.40;55.80;;;;;;5048251;28;20472;-80
2023/03/14 06:53:23;;;;;;;0.80;0.80;;;22.50;55.70;;;;;;5051215;28;20468;-81
2023/03/14 06:55:53;;;;;;;0.87;0.60;;;22.50;55.70;;;;;;5045843;28;20792;-80
2023/03/14 06:58:21;;;;;;;0.83;0.60;;;22.40;55.60;;;;;;5054558;28;20461;-80
2023/03/14 07:00:50;;;;;;;1.40;0.80;;;22.40;55.70;;;;;;5069778;28;20505;-80
2023/03/14 07:03:23;;;;;;;1.77;0.80;;;22.40;55.70;;;;;;5050802;28;20465;-81
2023/03/14 07:05:53;;;;;;;2.20;1.10;;;22.40;55.70;;;;;;5043313;28;20980;-81
2023/03/14 07:08:21;;;;;;;1.20;1.00;;;22.50;55.80;;;;;;5050944;28;20826;-81
2023/03/14 07:10:50;;;;;;;2.20;0.97;;;22.50;55.90;;;;;;5067375;28;20462;-81
2023/03/14 07:13:20;;;;;;;2.10;0.90;;;22.50;56.00;;;;;;5049511;28;20698;-80
2023/03/14 07:15:55;;;;;;;3.27;1.10;;;22.50;56.10;;;;;;5051038;28;20956;-80
2023/03/14 07:18:24;;;;;;;2.10;0.90;;;22.50;56.10;;;;;;5044851;28;20465;-80
2023/03/14 07:20:52;;;;;;;2.30;1.00;;;22.60;56.10;;;;;;5039872;28;20486;-80
2023/03/14 07:23:20;;;;;;;1.77;1.30;;;22.60;56.20;;;;;;5055577;28;20576;-80
2023/03/14 07:25:53;;;;;;;3.47;0.90;;;22.60;56.10;;;;;;5033748;28;20463;-80
2023/03/14 07:28:26;;;;;;;8.83;1.17;;;22.60;56.20;;;;;;5033860;28;20582;-80
2023/03/14 07:31:02;;;;;;;1.90;0.90;;;22.60;56.10;;;;;;5035790;28;20443;-80
2023/03/14 07:33:33;;;;;;;3.30;1.27;;;22.70;56.20;;;;;;5036515;28;20463;-81
2023/03/14 07:36:03;;;;;;;2.43;0.90;;;22.70;56.30;;;;;;5032603;28;20477;-81
2023/03/14 07:38:31;;;;;;;3.00;0.80;;;22.70;56.30;;;;;;5037418;28;20978;-81
2023/03/14 07:41:13;;;;;;;2.90;1.30;;;22.70;56.30;;;;;;5039003;28;20510;-81
2023/03/14 07:43:51;;;;;;;3.20;1.33;;;22.70;56.30;;;;;;5033648;28;20462;-80
2023/03/14 07:46:22;;;;;;;4.03;1.33;;;22.70;56.30;;;;;;5034164;28;20481;-80
2023/03/14 07:48:50;;;;;;;2.10;1.07;;;22.70;56.30;;;;;;5051576;28;21178;-80
2023/03/14 07:51:18;;;;;;;1.50;0.83;;;22.70;56.30;;;;;;5052129;28;20959;-80
2023/03/14 07:53:46;;;;;;;3.43;1.23;;;22.70;56.30;;;;;;5051135;28;20533;-80
2023/03/14 07:56:14;;;;;;;4.80;0.90;;;22.70;56.30;;;;;;5049161;28;20474;-80
2023/03/14 07:58:42;;;;;;;1.60;1.07;;;22.70;56.30;;;;;;5051303;28;20455;-81
2023/03/14 08:01:12;;;;;;;0.73;0.63;;;22.70;56.30;;;;;;5050707;28;20469;-81
2023/03/14 08:03:40;;;;;;;1.30;1.13;;;22.70;56.20;;;;;;5051376;28;20509;-81
2023/03/14 08:06:08;;;;;;;1.90;0.90;;;22.60;56.20;;;;;;5055438;28;21031;-78
2023/03/14 08:08:36;;;;;;;3.53;1.23;;;22.60;56.30;;;;;;5065280;28;20451;-78
2023/03/14 08:11:05;;;;;;;1.60;0.60;;;22.60;56.60;;;;;;5065202;28;20454;-78
2023/03/14 08:13:33;;;;;;;4.23;1.37;;;22.60;56.60;;;;;;5064893;28;20546;-78
2023/03/14 08:16:02;;;;;;;2.20;1.00;;;22.60;56.70;;;;;;5058521;28;20465;-77
2023/03/14 08:18:31;;;;;;;1.10;0.73;;;22.70;56.80;;;;;;5067428;28;20458;-78
2023/03/14 08:21:00;;;;;;;2.00;1.03;;;22.70;56.80;;;;;;5073162;28;21013;-79
2023/03/14 08:23:28;;;;;;;0.93;0.67;;;22.70;56.70;;;;;;5070340;28;20565;-78
2023/03/14 08:25:56;;;;;;;2.87;1.47;;;22.80;56.60;;;;;;5041531;28;21186;-78
2023/03/14 08:28:30;;;;;;;2.57;1.03;;;22.80;56.50;;;;;;5059920;28;20461;-79
2023/03/14 08:30:58;;;;;;;2.43;0.80;;;22.80;56.50;;;;;;5064968;28;20484;-79
2023/03/14 08:33:28;;;;;;;3.43;1.60;;;22.90;56.30;;;;;;5064680;28;20485;-80
2023/03/14 08:35:59;;;;;;;1.70;0.90;;;22.90;56.30;;;;;;5066553;28;20465;-80
2023/03/14 08:38:28;;;;;;;4.73;0.93;;;22.90;56.20;;;;;;5063970;28;20937;-79
2023/03/14 08:40:58;;;;;;;3.23;0.77;;;23.00;56.20;;;;;;5066033;28;20478;-78
2023/03/14 08:43:26;;;;;;;0.80;0.70;;;23.00;56.00;;;;;;5062683;28;20533;-79
2023/03/14 08:45:54;;;;;;;1.47;0.70;;;23.00;56.00;;;;;;5066756;28;20978;-78
2023/03/14 08:48:22;;;;;;;1.67;1.10;;;23.00;56.00;;;;;;5061975;28;21093;-79
2023/03/14 08:50:51;;;;;;;1.77;1.27;;;23.10;56.00;;;;;;5050284;28;20787;-80
2023/03/14 08:53:22;;;;;;;1.37;0.83;;;23.10;55.90;;;;;;5067713;28;20670;-80
2023/03/14 08:55:54;;;;;;;1.33;0.80;;;23.10;56.10;;;;;;5059991;28;20543;-79
2023/03/14 08:58:23;;;;;;;1.20;0.77;;;23.10;55.90;;;;;;5074122;28;20457;-77
2023/03/14 09:00:52;;;;;;;1.80;0.80;;;23.10;55.80;;;;;;5068557;28;20476;-77
2023/03/14 09:03:22;;;;;;;1.70;0.80;;;23.10;55.90;;;;;;5055111;28;20466;-76
2023/03/14 09:05:51;;;;;;;0.73;0.70;;;23.20;55.80;;;;;;5058414;28;20455;-77
2023/03/14 09:08:21;;;;;;;0.77;0.60;;;23.20;55.60;;;;;;5056056;28;20509;-77
2023/03/14 09:10:49;;;;;;;1.60;1.20;;;23.20;55.70;;;;;;5064939;28;20556;-78
2023/03/14 09:13:17;;;;;;;1.03;0.80;;;23.20;55.70;;;;;;5055827;28;20946;-78
2023/03/14 09:15:45;;;;;;;1.60;0.80;;;23.30;55.70;;;;;;5066309;28;20545;-78
2023/03/14 09:18:13;;;;;;;1.23;0.80;;;23.30;55.70;;;;;;5062070;28;20451;-78
2023/03/14 09:20:41;;;;;;;1.60;1.10;;;23.30;55.60;;;;;;5065740;28;20450;-78
2023/03/14 09:23:09;;;;;;;1.73;1.00;;;23.30;55.40;;;;;;5064285;28;20573;-79
2023/03/14 09:25:39;;;;;;;0.97;0.80;;;23.40;55.40;;;;;;5068350;28;20546;-79
2023/03/14 09:28:07;;;;;;;1.37;0.90;;;23.40;55.50;;;;;;5060416;28;20996;-79
2023/03/14 09:30:35;;;;;;;1.67;1.00;;;23.40;55.40;;;;;;5039338;28;20452;-80
2023/03/14 09:33:03;;;;;;;1.10;0.80;;;23.40;55.30;;;;;;5059399;28;20447;-79
2023/03/14 09:35:34;;;;;;;0.63;0.63;;;23.40;55.30;;;;;;5062923;28;20447;-76
2023/03/14 09:38:02;;;;;;;0.97;0.70;;;23.40;55.30;;;;;;5056622;28;20451;-77
2023/03/14 09:40:35;;;;;;;1.13;0.80;;;23.40;55.30;;;;;;5063874;28;20451;-77
2023/03/14 09:43:05;;;;;;;1.33;0.77;;;23.40;55.10;;;;;;5068325;28;20558;-77
2023/03/14 09:45:36;;;;;;;2.70;1.00;;;23.40;55.10;;;;;;5056622;28;20535;-79
2023/03/14 09:48:05;;;;;;;1.17;0.77;;;23.50;55.10;;;;;;5061014;28;20458;-78
2023/03/14 09:50:38;;;;;;;0.60;0.60;;;23.50;55.10;;;;;;5066193;28;20507;-80
2023/03/14 09:53:13;;;;;;;2.07;0.93;;;23.50;55.10;;;;;;5061024;28;21116;-79
2023/03/14 09:55:43;;;;;;;2.03;0.70;;;23.50;55.30;;;;;;5061221;28;20453;-80
2023/03/14 09:58:17;;;;;;;1.03;0.60;;;23.50;55.30;;;;;;5047443;28;21244;-76
2023/03/14 10:00:45;;;;;;;1.13;0.70;;;23.50;55.30;;;;;;5068415;28;21357;-76
2023/03/14 10:03:26;;;;;;;1.57;0.90;;;23.50;55.30;;;;;;5065000;28;20470;-77
2023/03/14 10:05:56;;;;;;;0.80;0.80;;;23.50;55.10;;;;;;5063442;28;20493;-77
2023/03/14 10:08:25;;;;;;;0.67;0.67;;;23.50;55.10;;;;;;5058229;28;20454;-78
2023/03/14 10:10:54;;;;;;;0.80;0.77;;;23.50;55.00;;;;;;5056921;28;20465;-77
2023/03/14 10:13:27;;;;;;;1.20;0.80;;;23.50;55.00;;;;;;5066361;28;20458;-79
2023/03/14 10:16:00;;;;;;;0.60;0.60;;;23.50;54.90;;;;;;5053771;28;20466;-79
2023/03/14 10:18:30;;;;;;;0.80;0.60;;;23.50;54.80;;;;;;5063730;28;20559;-79
2023/03/14 10:21:07;;;;;;;5.57;0.87;;;23.60;54.70;;;;;;5061293;28;20934;-76
2023/03/14 10:23:36;;;;;;;1.07;0.87;;;23.60;54.70;;;;;;5059669;28;21045;-76
2023/03/14 10:26:09;;;;;;;0.70;0.60;;;23.60;54.60;;;;;;5051613;28;20483;-77
2023/03/14 10:28:43;;;;;;;3.40;0.60;;;23.60;54.60;;;;;;5066361;28;20458;-77
2023/03/14 10:31:11;;;;;;;1.07;0.53;;;23.60;54.60;;;;;;5063690;28;20548;-77
2023/03/14 10:33:41;;;;;;;0.60;0.60;;;23.60;54.60;;;;;;5072497;28;20461;-79
2023/03/14 10:36:20;;;;;;;0.80;0.70;;;23.70;54.60;;;;;;5065165;28;20530;-79
2023/03/14 10:38:48;;;;;;;1.20;0.60;;;23.70;54.60;;;;;;5059145;28;20579;-78
2023/03/14 10:41:20;;;;;;;0.70;0.50;;;23.70;54.50;;;;;;5061011;28;20460;-79
2023/03/14 10:43:51;;;;;;;1.23;0.80;;;23.70;54.40;;;;;;5063987;28;20448;-79
2023/03/14 10:46:21;;;;;;;1.27;0.90;;;23.70;54.40;;;;;;5058880;28;20455;-78
2023/03/14 10:49:08;;;;;;;0.97;0.80;;;23.80;54.30;;;;;;5048532;28;20539;-78
2023/03/14 10:51:36;;;;;;;2.67;0.90;;;23.80;54.20;;;;;;5055060;28;20478;-78
2023/03/14 10:54:13;;;;;;;0.60;0.60;;;23.90;54.10;;;;;;5066442;28;20906;-78
2023/03/14 10:56:41;;;;;;;0.40;0.40;;;24.00;54.10;;;;;;5065323;28;20452;-77
2023/03/14 10:59:16;;;;;;;0.37;0.30;;;24.00;54.00;;;;;;5068283;28;20458;-78
2023/03/14 11:01:52;;;;;;;0.40;0.40;;;24.00;53.90;;;;;;5070430;28;20507;-79
2023/03/14 11:04:39;;;;;;;1.40;0.60;;;24.10;53.90;;;;;;5068843;28;20461;-80
2023/03/14 11:07:14;;;;;;;0.57;0.50;;;24.10;53.90;;;;;;5055931;28;20450;-79
2023/03/14 11:09:47;;;;;;;0.60;0.60;;;24.30;53.50;;;;;;5057997;28;20463;-77
2023/03/14 11:12:33;;;;;;;1.63;0.60;;;24.30;53.30;;;;;;5067000;28;21005;-78
2023/03/14 11:15:10;;;;;;;0.60;0.60;;;24.30;53.40;;;;;;5059789;28;20464;-79
2023/03/14 11:17:47;;;;;;;0.60;0.40;;;24.30;53.20;;;;;;5068377;28;20463;-78
2023/03/14 11:20:33;;;;;;;0.60;0.40;;;24.20;53.40;;;;;;5065818;28;20535;-78
2023/03/14 11:23:08;;;;;;;1.00;0.70;;;24.20;53.40;;;;;;5057546;28;20497;-78
2023/03/14 11:25:44;;;;;;;1.07;0.70;;;24.10;53.50;;;;;;5063330;28;20542;-77
2023/03/14 11:28:19;;;;;;;0.83;0.47;;;24.10;53.40;;;;;;5062637;28;20543;-80
2023/03/14 11:30:52;;;;;;;0.70;0.43;;;24.10;53.50;;;;;;5070427;28;20498;-78
2023/03/14 11:33:26;;;;;;;0.40;0.40;;;24.10;53.60;;;;;;5073688;28;20448;-79
2023/03/14 11:36:00;;;;;;;1.83;0.60;;;24.10;53.50;;;;;;5069504;28;20456;-81
2023/03/14 11:38:37;;;;;;;0.80;0.70;;;24.00;53.50;;;;;;5059944;28;20439;-80
2023/03/14 11:41:13;;;;;;;0.77;0.60;;;24.00;53.50;;;;;;5059652;28;21021;-80
2023/03/14 11:43:42;;;;;;;0.60;0.50;;;24.00;53.50;;;;;;5062941;28;20472;-78
2023/03/14 11:46:17;;;;;;;0.50;0.50;;;23.90;53.50;;;;;;5064318;28;20459;-79
2023/03/14 11:48:54;;;;;;;0.77;0.53;;;23.90;53.60;;;;;;5054100;28;20547;-79
2023/03/14 11:51:27;;;;;;;0.60;0.60;;;23.90;53.60;;;;;;5065479;28;20455;-79
2023/03/14 11:54:00;;;;;;;0.40;0.40;;;23.80;53.60;;;;;;5067426;28;20458;-77
2023/03/14 11:56:45;;;;;;;0.70;0.60;;;23.90;53.50;;;;;;5056913;28;20453;-78
2023/03/14 11:59:20;;;;;;;0.70;0.60;;;23.90;53.50;;;;;;5066150;28;20598;-82
2023/03/14 12:01:58;;;;;;;1.57;0.50;;;23.80;53.40;;;;;;5061003;28;20477;-82
2023/03/14 12:04:40;;;;;;;1.10;0.57;;;23.80;53.30;;;;;;5056517;28;20537;-81
2023/03/14 12:07:20;;;;;;;0.60;0.53;;;23.80;53.20;;;;;;5071807;28;20463;-81
2023/03/14 12:09:50;;;;;;;0.87;0.60;;;23.80;53.30;;;;;;5063488;28;20455;-82
2023/03/14 12:12:21;;;;;;;0.83;0.40;;;23.80;53.20;;;;;;5043743;28;20836;-82
2023/03/14 12:14:56;;;;;;;1.13;0.50;;;23.80;53.30;;;;;;5036297;28;20570;-82
2023/03/14 12:17:28;;;;;;;1.43;0.50;;;23.80;53.40;;;;;;5063684;28;20931;-81
2023/03/14 12:20:07;;;;;;;0.60;0.60;;;23.70;53.40;;;;;;5062475;28;20473;-83
2023/03/14 12:22:42;;;;;;;0.60;0.50;;;23.70;53.50;;;;;;5062209;28;20569;-81
2023/03/14 12:25:17;;;;;;;3.50;1.70;;;23.70;53.60;;;;;;5054085;28;20461;-81
2023/03/14 12:28:19;;;;;;;3.57;1.77;;;23.70;53.70;;;;;;5033280;28;20541;-82
2023/03/14 12:30:48;;;;;;;4.60;1.30;;;23.60;53.70;;;;;;5050655;28;20538;-81
2023/03/14 12:33:30;;;;;;;4.30;2.20;;;23.60;53.80;;;;;;5045586;28;20512;-82
2023/03/14 12:36:04;;;;;;;7.73;2.03;;;23.60;53.70;;;;;;5054609;28;20455;-82
2023/03/14 12:38:56;;;;;;;6.10;2.23;;;23.50;53.80;;;;;;5058468;28;20475;-82
2023/03/14 12:41:29;;;;;;;3.27;2.20;;;23.50;54.00;;;;;;5057518;28;20456;-81
2023/03/14 12:43:57;;;;;;;8.17;2.30;;;23.50;54.00;;;;;;5057909;28;20510;-81
2023/03/14 12:46:27;;;;;;;5.00;2.37;;;23.40;54.00;;;;;;5062235;28;20448;-81
2023/03/14 12:49:07;;;;;;;3.43;1.87;;;23.40;54.10;;;;;;5062680;28;20540;-81
2023/03/14 12:51:37;;;;;;;4.37;2.10;;;23.40;54.00;;;;;;5070447;28;20466;-82
2023/03/14 12:54:35;;;;;;;4.70;2.60;;;23.30;54.10;;;;;;5073478;28;20880;-82
2023/03/14 12:57:14;;;;;;;7.10;2.50;;;23.30;54.20;;;;;;5069350;28;20455;-82
2023/03/14 12:59:51;;;;;;;3.90;2.50;;;23.30;54.10;;;;;;5064354;28;20455;-82
2023/03/14 13:02:24;;;;;;;4.53;2.57;;;23.30;54.20;;;;;;5057045;28;20453;-81
2023/03/14 13:05:02;;;;;;;5.10;2.30;;;23.30;54.20;;;;;;5056880;28;20484;-83
2023/03/14 13:07:34;;;;;;;7.37;2.20;;;23.30;54.20;;;;;;5066573;28;20454;-83
2023/03/14 13:10:06;;;;;;;5.97;2.80;;;23.30;54.20;;;;;;5061270;28;20468;-82
2023/03/14 13:12:39;;;;;;;6.03;2.60;;;23.30;54.30;;;;;;5054910;28;20965;-82
2023/03/14 13:15:23;;;;;;;4.60;2.37;;;23.30;54.30;;;;;;5053971;28;20533;-82
2023/03/14 13:17:54;;;;;;;6.10;2.80;;;23.20;54.40;;;;;;5054942;28;20548;-82